sensor_id;sensor_type;location;lat;lon;timestamp;P1;durP1;ratioP1;P2;durP2;ratioP2
17844;SDS011;9047;53.486;10.218;2022-09-13T00:00:26;7.50;;;5.97;;
17844;SDS011;9047;53.486;10.218;2022-09-13T00:03:12;7.07;;;5.10;;
17844;SDS011;9047;53.486;10.218;2022-09-13T00:05:56;6.03;;;4.93;;
17844;SDS011;9047;53.486;10.218;2022-09-13T00:08:28;7.72;;;5.10;;
17844;SDS011;9047;53.486;10.218;2022-09-13T00:11:01;7.05;;;4.88;;
17844;SDS011;9047;53.486;10.218;2022-09-13T00:13:29;7.20;;;5.00;;
17844;SDS011;9047;53.486;10.218;2022-09-13T00:16:04;6.13;;;4.75;;
17844;SDS011;9047;53.486;10.218;2022-09-13T00:18:45;5.28;;;4.57;;
17844;SDS011;9047;53.486;10.218;2022-09-13T00:21:15;5.43;;;4.45;;
17844;SDS011;9047;53.486;10.218;2022-09-13T00:23:44;6.20;;;4.53;;
17844;SDS011;9047;53.486;10.218;2022-09-13T00:26:17;5.78;;;4.82;;
17844;SDS011;9047;53.486;10.218;2022-09-13T00:28:58;5.00;;;4.50;;
17844;SDS011;9047;53.486;10.218;2022-09-13T00:31:34;5.68;;;4.43;;
17844;SDS011;9047;53.486;10.218;2022-09-13T00:34:02;7.55;;;4.60;;
17844;SDS011;9047;53.486;10.218;2022-09-13T00:36:45;5.15;;;4.40;;
17844;SDS011;9047;53.486;10.218;2022-09-13T00:39:51;4.43;;;3.92;;
17844;SDS011;9047;53.486;10.218;2022-09-13T00:42:20;5.60;;;4.38;;
17844;SDS011;9047;53.486;10.218;2022-09-13T00:45:07;5.97;;;4.45;;
17844;SDS011;9047;53.486;10.218;2022-09-13T00:47:47;4.35;;;3.92;;
17844;SDS011;9047;53.486;10.218;2022-09-13T00:50:30;7.13;;;4.22;;
17844;SDS011;9047;53.486;10.218;2022-09-13T00:53:16;4.93;;;4.10;;
17844;SDS011;9047;53.486;10.218;2022-09-13T00:56:00;5.45;;;4.55;;
17844;SDS011;9047;53.486;10.218;2022-09-13T00:58:51;6.72;;;4.60;;
17844;SDS011;9047;53.486;10.218;2022-09-13T01:01:39;5.18;;;4.35;;
17844;SDS011;9047;53.486;10.218;2022-09-13T01:04:33;9.25;;;6.00;;
17844;SDS011;9047;53.486;10.218;2022-09-13T01:07:05;7.53;;;5.57;;
17844;SDS011;9047;53.486;10.218;2022-09-13T01:09:50;8.75;;;6.03;;
17844;SDS011;9047;53.486;10.218;2022-09-13T01:12:25;7.38;;;6.18;;
17844;SDS011;9047;53.486;10.218;2022-09-13T01:15:02;8.23;;;6.30;;
17844;SDS011;9047;53.486;10.218;2022-09-13T01:20:42;7.88;;;6.25;;
17844;SDS011;9047;53.486;10.218;2022-09-13T01:23:46;8.55;;;6.93;;
17844;SDS011;9047;53.486;10.218;2022-09-13T01:29:30;7.95;;;6.60;;
17844;SDS011;9047;53.486;10.218;2022-09-13T01:32:49;14.77;;;7.15;;
17844;SDS011;9047;53.486;10.218;2022-09-13T01:38:55;11.25;;;8.00;;
17844;SDS011;9047;53.486;10.218;2022-09-13T01:41:45;11.68;;;9.38;;
17844;SDS011;9047;53.486;10.218;2022-09-13T01:44:44;10.55;;;9.40;;
17844;SDS011;9047;53.486;10.218;2022-09-13T01:47:23;13.15;;;9.75;;
17844;SDS011;9047;53.486;10.218;2022-09-13T01:50:08;14.18;;;10.93;;
17844;SDS011;9047;53.486;10.218;2022-09-13T01:52:43;13.25;;;10.30;;
17844;SDS011;9047;53.486;10.218;2022-09-13T01:55:31;12.45;;;10.07;;
17844;SDS011;9047;53.486;10.218;2022-09-13T01:58:15;14.48;;;11.43;;
17844;SDS011;9047;53.486;10.218;2022-09-13T02:00:54;14.63;;;12.13;;
17844;SDS011;9047;53.486;10.218;2022-09-13T02:03:38;12.68;;;10.10;;
17844;SDS011;9047;53.486;10.218;2022-09-13T02:06:27;15.23;;;11.60;;
17844;SDS011;9047;53.486;10.218;2022-09-13T02:09:00;14.13;;;11.32;;
17844;SDS011;9047;53.486;10.218;2022-09-13T02:12:10;14.23;;;10.90;;
17844;SDS011;9047;53.486;10.218;2022-09-13T02:14:45;15.70;;;11.32;;
17844;SDS011;9047;53.486;10.218;2022-09-13T02:17:27;12.70;;;9.65;;
17844;SDS011;9047;53.486;10.218;2022-09-13T02:23:45;13.82;;;10.65;;
17844;SDS011;9047;53.486;10.218;2022-09-13T02:26:17;16.10;;;11.30;;
17844;SDS011;9047;53.486;10.218;2022-09-13T02:28:52;14.50;;;11.32;;
17844;SDS011;9047;53.486;10.218;2022-09-13T02:31:23;15.38;;;11.73;;
17844;SDS011;9047;53.486;10.218;2022-09-13T02:34:02;14.80;;;12.18;;
17844;SDS011;9047;53.486;10.218;2022-09-13T02:36:55;17.92;;;13.30;;
17844;SDS011;9047;53.486;10.218;2022-09-13T02:39:52;16.85;;;13.07;;
17844;SDS011;9047;53.486;10.218;2022-09-13T02:43:12;18.33;;;12.05;;
17844;SDS011;9047;53.486;10.218;2022-09-13T02:46:49;15.63;;;11.25;;
17844;SDS011;9047;53.486;10.218;2022-09-13T02:51:53;17.30;;;12.82;;
17844;SDS011;9047;53.486;10.218;2022-09-13T02:53:52;18.13;;;12.90;;
17844;SDS011;9047;53.486;10.218;2022-09-13T03:00:03;14.13;;;10.82;;
17844;SDS011;9047;53.486;10.218;2022-09-13T03:02:48;15.57;;;10.88;;
17844;SDS011;9047;53.486;10.218;2022-09-13T03:05:29;17.27;;;11.55;;
17844;SDS011;9047;53.486;10.218;2022-09-13T03:08:24;15.68;;;11.15;;
17844;SDS011;9047;53.486;10.218;2022-09-13T03:11:22;16.38;;;12.18;;
17844;SDS011;9047;53.486;10.218;2022-09-13T03:14:31;19.25;;;12.52;;
17844;SDS011;9047;53.486;10.218;2022-09-13T03:17:13;16.08;;;11.65;;
17844;SDS011;9047;53.486;10.218;2022-09-13T03:20:11;14.50;;;11.18;;
17844;SDS011;9047;53.486;10.218;2022-09-13T03:23:07;17.13;;;11.15;;
17844;SDS011;9047;53.486;10.218;2022-09-13T03:29:29;16.20;;;12.02;;
17844;SDS011;9047;53.486;10.218;2022-09-13T03:32:26;16.65;;;12.00;;
17844;SDS011;9047;53.486;10.218;2022-09-13T03:38:59;19.10;;;12.82;;
17844;SDS011;9047;53.486;10.218;2022-09-13T03:44:34;21.05;;;13.70;;
17844;SDS011;9047;53.486;10.218;2022-09-13T03:47:25;17.35;;;12.63;;
17844;SDS011;9047;53.486;10.218;2022-09-13T03:50:14;21.85;;;13.43;;
17844;SDS011;9047;53.486;10.218;2022-09-13T03:52:52;21.80;;;13.93;;
17844;SDS011;9047;53.486;10.218;2022-09-13T03:58:17;23.75;;;14.73;;
17844;SDS011;9047;53.486;10.218;2022-09-13T04:00:47;23.70;;;14.05;;
17844;SDS011;9047;53.486;10.218;2022-09-13T04:03:21;21.35;;;14.93;;
17844;SDS011;9047;53.486;10.218;2022-09-13T04:05:49;22.00;;;14.10;;
17844;SDS011;9047;53.486;10.218;2022-09-13T04:11:11;26.02;;;16.85;;
17844;SDS011;9047;53.486;10.218;2022-09-13T04:13:39;25.75;;;16.02;;
17844;SDS011;9047;53.486;10.218;2022-09-13T04:16:10;23.95;;;15.15;;
17844;SDS011;9047;53.486;10.218;2022-09-13T04:18:41;24.20;;;15.65;;
17844;SDS011;9047;53.486;10.218;2022-09-13T04:21:18;30.70;;;17.27;;
17844;SDS011;9047;53.486;10.218;2022-09-13T04:23:50;22.25;;;15.00;;
17844;SDS011;9047;53.486;10.218;2022-09-13T04:26:20;26.45;;;15.50;;
17844;SDS011;9047;53.486;10.218;2022-09-13T04:28:53;25.33;;;15.68;;
17844;SDS011;9047;53.486;10.218;2022-09-13T04:34:13;21.00;;;13.98;;
17844;SDS011;9047;53.486;10.218;2022-09-13T04:36:48;27.92;;;16.58;;
17844;SDS011;9047;53.486;10.218;2022-09-13T04:39:37;24.58;;;15.88;;
17844;SDS011;9047;53.486;10.218;2022-09-13T04:42:24;28.92;;;17.73;;
17844;SDS011;9047;53.486;10.218;2022-09-13T04:44:59;24.17;;;15.50;;
17844;SDS011;9047;53.486;10.218;2022-09-13T04:47:39;25.92;;;15.73;;
17844;SDS011;9047;53.486;10.218;2022-09-13T04:50:23;24.13;;;15.65;;
17844;SDS011;9047;53.486;10.218;2022-09-13T04:53:43;24.58;;;15.80;;
17844;SDS011;9047;53.486;10.218;2022-09-13T05:03:03;31.52;;;18.25;;
17844;SDS011;9047;53.486;10.218;2022-09-13T05:05:58;30.55;;;17.48;;
17844;SDS011;9047;53.486;10.218;2022-09-13T05:09:14;31.45;;;17.75;;
17844;SDS011;9047;53.486;10.218;2022-09-13T05:28:27;36.55;;;20.67;;
17844;SDS011;9047;53.486;10.218;2022-09-13T05:35:27;46.40;;;21.55;;
17844;SDS011;9047;53.486;10.218;2022-09-13T06:15:59;43.50;;;22.48;;
17844;SDS011;9047;53.486;10.218;2022-09-13T06:18:29;45.40;;;22.63;;
17844;SDS011;9047;53.486;10.218;2022-09-13T06:21:01;54.42;;;24.90;;
17844;SDS011;9047;53.486;10.218;2022-09-13T06:24:11;40.78;;;20.60;;
17844;SDS011;9047;53.486;10.218;2022-09-13T06:27:28;41.97;;;22.48;;
17844;SDS011;9047;53.486;10.218;2022-09-13T06:37:38;56.13;;;26.70;;
17844;SDS011;9047;53.486;10.218;2022-09-13T06:44:07;46.83;;;22.95;;
17844;SDS011;9047;53.486;10.218;2022-09-13T06:47:19;40.85;;;22.85;;
17844;SDS011;9047;53.486;10.218;2022-09-13T07:28:30;29.35;;;17.40;;
17844;SDS011;9047;53.486;10.218;2022-09-13T07:31:24;28.23;;;17.17;;
17844;SDS011;9047;53.486;10.218;2022-09-13T07:34:31;23.27;;;14.55;;
17844;SDS011;9047;53.486;10.218;2022-09-13T07:37:41;27.17;;;15.93;;
17844;SDS011;9047;53.486;10.218;2022-09-13T07:40:53;23.67;;;15.32;;
17844;SDS011;9047;53.486;10.218;2022-09-13T07:56:45;20.42;;;10.05;;
17844;SDS011;9047;53.486;10.218;2022-09-13T08:05:59;14.10;;;8.50;;
17844;SDS011;9047;53.486;10.218;2022-09-13T08:09:07;16.30;;;9.18;;
17844;SDS011;9047;53.486;10.218;2022-09-13T08:25:36;12.18;;;7.50;;
17844;SDS011;9047;53.486;10.218;2022-09-13T08:31:32;10.77;;;7.22;;
17844;SDS011;9047;53.486;10.218;2022-09-13T08:34:21;16.95;;;7.85;;
17844;SDS011;9047;53.486;10.218;2022-09-13T08:37:15;13.23;;;7.30;;
17844;SDS011;9047;53.486;10.218;2022-09-13T08:50:33;9.95;;;4.63;;
17844;SDS011;9047;53.486;10.218;2022-09-13T08:53:50;12.88;;;5.50;;
17844;SDS011;9047;53.486;10.218;2022-09-13T09:42:25;8.20;;;1.60;;
17844;SDS011;9047;53.486;10.218;2022-09-13T09:45:21;7.72;;;1.40;;
17844;SDS011;9047;53.486;10.218;2022-09-13T09:48:11;7.70;;;1.83;;
17844;SDS011;9047;53.486;10.218;2022-09-13T09:50:58;8.18;;;1.60;;
17844;SDS011;9047;53.486;10.218;2022-09-13T09:53:47;7.00;;;1.55;;
17844;SDS011;9047;53.486;10.218;2022-09-13T09:56:55;8.27;;;1.40;;
17844;SDS011;9047;53.486;10.218;2022-09-13T10:19:55;6.82;;;1.00;;
17844;SDS011;9047;53.486;10.218;2022-09-13T11:05:29;4.25;;;1.02;;
17844;SDS011;9047;53.486;10.218;2022-09-13T11:09:04;7.07;;;1.42;;
17844;SDS011;9047;53.486;10.218;2022-09-13T11:12:24;5.63;;;1.08;;
17844;SDS011;9047;53.486;10.218;2022-09-13T11:15:45;3.40;;;0.82;;
17844;SDS011;9047;53.486;10.218;2022-09-13T11:18:51;10.90;;;1.38;;
17844;SDS011;9047;53.486;10.218;2022-09-13T11:21:53;3.92;;;0.90;;
17844;SDS011;9047;53.486;10.218;2022-09-13T11:45:46;8.63;;;1.50;;
17844;SDS011;9047;53.486;10.218;2022-09-13T11:55:38;6.28;;;1.60;;
17844;SDS011;9047;53.486;10.218;2022-09-13T11:58:41;3.30;;;1.67;;
17844;SDS011;9047;53.486;10.218;2022-09-13T12:01:28;5.15;;;1.90;;
17844;SDS011;9047;53.486;10.218;2022-09-13T12:04:29;8.45;;;0.98;;
17844;SDS011;9047;53.486;10.218;2022-09-13T12:07:43;4.93;;;0.90;;
17844;SDS011;9047;53.486;10.218;2022-09-13T12:34:37;5.15;;;1.00;;
17844;SDS011;9047;53.486;10.218;2022-09-13T12:41:06;4.50;;;1.15;;
17844;SDS011;9047;53.486;10.218;2022-09-13T12:44:24;3.90;;;1.10;;
17844;SDS011;9047;53.486;10.218;2022-09-13T12:47:37;4.57;;;1.20;;
17844;SDS011;9047;53.486;10.218;2022-09-13T12:54:16;5.47;;;1.30;;
17844;SDS011;9047;53.486;10.218;2022-09-13T13:01:04;6.40;;;1.00;;
17844;SDS011;9047;53.486;10.218;2022-09-13T13:04:53;4.28;;;0.85;;
17844;SDS011;9047;53.486;10.218;2022-09-13T13:07:49;5.15;;;1.08;;
17844;SDS011;9047;53.486;10.218;2022-09-13T13:10:43;5.50;;;1.20;;
17844;SDS011;9047;53.486;10.218;2022-09-13T13:17:38;8.02;;;1.80;;
17844;SDS011;9047;53.486;10.218;2022-09-13T13:21:21;5.78;;;1.00;;
17844;SDS011;9047;53.486;10.218;2022-09-13T14:06:51;6.80;;;1.45;;
17844;SDS011;9047;53.486;10.218;2022-09-13T14:10:17;6.55;;;1.30;;
17844;SDS011;9047;53.486;10.218;2022-09-13T14:16:12;4.10;;;1.00;;
17844;SDS011;9047;53.486;10.218;2022-09-13T14:28:38;9.40;;;1.38;;
17844;SDS011;9047;53.486;10.218;2022-09-13T14:44:46;9.18;;;1.50;;
17844;SDS011;9047;53.486;10.218;2022-09-13T14:54:46;5.10;;;1.10;;
17844;SDS011;9047;53.486;10.218;2022-09-13T14:57:58;6.65;;;1.30;;
17844;SDS011;9047;53.486;10.218;2022-09-13T15:04:34;6.85;;;1.50;;
17844;SDS011;9047;53.486;10.218;2022-09-13T15:07:44;12.85;;;1.55;;
17844;SDS011;9047;53.486;10.218;2022-09-13T15:10:45;7.03;;;1.23;;
17844;SDS011;9047;53.486;10.218;2022-09-13T15:20:03;5.38;;;1.33;;
17844;SDS011;9047;53.486;10.218;2022-09-13T15:33:26;7.72;;;1.50;;
17844;SDS011;9047;53.486;10.218;2022-09-13T15:40:18;9.32;;;2.05;;
17844;SDS011;9047;53.486;10.218;2022-09-13T15:46:59;6.65;;;2.10;;
17844;SDS011;9047;53.486;10.218;2022-09-13T15:50:06;9.02;;;1.77;;
17844;SDS011;9047;53.486;10.218;2022-09-13T15:53:00;6.93;;;1.52;;
17844;SDS011;9047;53.486;10.218;2022-09-13T15:59:31;7.07;;;1.38;;
17844;SDS011;9047;53.486;10.218;2022-09-13T16:05:54;8.32;;;1.52;;
17844;SDS011;9047;53.486;10.218;2022-09-13T16:08:25;9.85;;;1.63;;
17844;SDS011;9047;53.486;10.218;2022-09-13T16:17:37;9.75;;;1.85;;
17844;SDS011;9047;53.486;10.218;2022-09-13T16:20:54;9.40;;;1.90;;
17844;SDS011;9047;53.486;10.218;2022-09-13T16:23:51;7.60;;;1.70;;
17844;SDS011;9047;53.486;10.218;2022-09-13T16:27:23;9.75;;;1.80;;
17844;SDS011;9047;53.486;10.218;2022-09-13T16:29:44;10.07;;;2.08;;
17844;SDS011;9047;53.486;10.218;2022-09-13T16:32:31;11.80;;;1.88;;
17844;SDS011;9047;53.486;10.218;2022-09-13T16:35:14;7.68;;;1.70;;
17844;SDS011;9047;53.486;10.218;2022-09-13T16:41:55;8.18;;;1.92;;
17844;SDS011;9047;53.486;10.218;2022-09-13T16:44:41;9.65;;;2.08;;
17844;SDS011;9047;53.486;10.218;2022-09-13T16:47:20;12.88;;;2.83;;
17844;SDS011;9047;53.486;10.218;2022-09-13T16:50:30;8.95;;;2.35;;
17844;SDS011;9047;53.486;10.218;2022-09-13T16:57:05;8.48;;;1.45;;
17844;SDS011;9047;53.486;10.218;2022-09-13T17:02:33;7.55;;;1.60;;
17844;SDS011;9047;53.486;10.218;2022-09-13T17:05:21;5.75;;;1.40;;
17844;SDS011;9047;53.486;10.218;2022-09-13T17:07:58;5.65;;;1.23;;
17844;SDS011;9047;53.486;10.218;2022-09-13T17:10:32;5.00;;;1.35;;
17844;SDS011;9047;53.486;10.218;2022-09-13T17:13:08;4.82;;;1.23;;
17844;SDS011;9047;53.486;10.218;2022-09-13T17:15:50;5.47;;;1.27;;
17844;SDS011;9047;53.486;10.218;2022-09-13T17:18:41;6.72;;;1.25;;
17844;SDS011;9047;53.486;10.218;2022-09-13T17:22:41;4.53;;;1.10;;
17844;SDS011;9047;53.486;10.218;2022-09-13T17:25:10;6.97;;;1.30;;
17844;SDS011;9047;53.486;10.218;2022-09-13T17:27:50;6.63;;;1.40;;
17844;SDS011;9047;53.486;10.218;2022-09-13T17:36:39;7.85;;;1.67;;
17844;SDS011;9047;53.486;10.218;2022-09-13T17:42:32;6.03;;;1.30;;
17844;SDS011;9047;53.486;10.218;2022-09-13T17:45:20;6.63;;;1.20;;
17844;SDS011;9047;53.486;10.218;2022-09-13T17:48:16;4.32;;;1.27;;
17844;SDS011;9047;53.486;10.218;2022-09-13T17:50:48;6.38;;;1.23;;
17844;SDS011;9047;53.486;10.218;2022-09-13T17:53:15;5.30;;;1.27;;
17844;SDS011;9047;53.486;10.218;2022-09-13T17:56:00;7.40;;;1.40;;
17844;SDS011;9047;53.486;10.218;2022-09-13T17:58:28;6.00;;;1.33;;
17844;SDS011;9047;53.486;10.218;2022-09-13T18:01:01;6.13;;;1.52;;
17844;SDS011;9047;53.486;10.218;2022-09-13T18:04:06;6.22;;;1.30;;
17844;SDS011;9047;53.486;10.218;2022-09-13T18:06:38;3.83;;;1.50;;
17844;SDS011;9047;53.486;10.218;2022-09-13T18:09:40;10.60;;;1.50;;
17844;SDS011;9047;53.486;10.218;2022-09-13T18:12:55;7.60;;;1.50;;
17844;SDS011;9047;53.486;10.218;2022-09-13T18:15:23;8.88;;;1.45;;
17844;SDS011;9047;53.486;10.218;2022-09-13T18:17:56;6.05;;;1.48;;
17844;SDS011;9047;53.486;10.218;2022-09-13T18:20:43;4.13;;;1.10;;
17844;SDS011;9047;53.486;10.218;2022-09-13T18:23:48;7.68;;;1.55;;
17844;SDS011;9047;53.486;10.218;2022-09-13T18:26:40;6.70;;;1.50;;
17844;SDS011;9047;53.486;10.218;2022-09-13T18:29:12;5.70;;;1.35;;
17844;SDS011;9047;53.486;10.218;2022-09-13T18:31:42;7.50;;;1.20;;
17844;SDS011;9047;53.486;10.218;2022-09-13T18:34:45;10.18;;;1.50;;
17844;SDS011;9047;53.486;10.218;2022-09-13T18:38:43;3.90;;;1.23;;
17844;SDS011;9047;53.486;10.218;2022-09-13T18:41:17;6.68;;;1.15;;
17844;SDS011;9047;53.486;10.218;2022-09-13T18:43:47;7.97;;;1.45;;
17844;SDS011;9047;53.486;10.218;2022-09-13T18:46:37;9.00;;;1.73;;
17844;SDS011;9047;53.486;10.218;2022-09-13T18:49:18;6.85;;;1.52;;
17844;SDS011;9047;53.486;10.218;2022-09-13T18:51:50;13.18;;;1.60;;
17844;SDS011;9047;53.486;10.218;2022-09-13T18:54:27;6.10;;;1.40;;
17844;SDS011;9047;53.486;10.218;2022-09-13T18:57:11;6.85;;;1.45;;
17844;SDS011;9047;53.486;10.218;2022-09-13T18:59:41;7.20;;;1.70;;
17844;SDS011;9047;53.486;10.218;2022-09-13T19:02:15;8.85;;;1.77;;
17844;SDS011;9047;53.486;10.218;2022-09-13T19:05:24;7.18;;;1.35;;
17844;SDS011;9047;53.486;10.218;2022-09-13T19:07:39;7.20;;;1.48;;
17844;SDS011;9047;53.486;10.218;2022-09-13T19:10:35;8.93;;;1.52;;
17844;SDS011;9047;53.486;10.218;2022-09-13T19:13:21;6.75;;;1.40;;
17844;SDS011;9047;53.486;10.218;2022-09-13T19:15:56;7.25;;;1.27;;
17844;SDS011;9047;53.486;10.218;2022-09-13T19:18:26;5.03;;;1.35;;
17844;SDS011;9047;53.486;10.218;2022-09-13T19:21:21;6.43;;;1.50;;
17844;SDS011;9047;53.486;10.218;2022-09-13T19:23:55;7.38;;;1.45;;
17844;SDS011;9047;53.486;10.218;2022-09-13T19:26:27;7.22;;;1.48;;
17844;SDS011;9047;53.486;10.218;2022-09-13T19:32:05;7.47;;;1.13;;
17844;SDS011;9047;53.486;10.218;2022-09-13T19:35:13;6.63;;;1.40;;
17844;SDS011;9047;53.486;10.218;2022-09-13T19:37:42;4.88;;;1.38;;
17844;SDS011;9047;53.486;10.218;2022-09-13T19:40:19;10.85;;;1.35;;
17844;SDS011;9047;53.486;10.218;2022-09-13T19:43:05;5.15;;;1.20;;
17844;SDS011;9047;53.486;10.218;2022-09-13T19:46:10;4.72;;;1.25;;
17844;SDS011;9047;53.486;10.218;2022-09-13T19:48:41;5.43;;;1.55;;
17844;SDS011;9047;53.486;10.218;2022-09-13T19:51:29;9.60;;;1.70;;
17844;SDS011;9047;53.486;10.218;2022-09-13T19:54:22;5.88;;;1.10;;
17844;SDS011;9047;53.486;10.218;2022-09-13T19:56:52;9.02;;;1.83;;
17844;SDS011;9047;53.486;10.218;2022-09-13T19:59:33;5.63;;;1.45;;
17844;SDS011;9047;53.486;10.218;2022-09-13T20:02:12;4.32;;;1.38;;
17844;SDS011;9047;53.486;10.218;2022-09-13T20:04:49;5.22;;;1.33;;
17844;SDS011;9047;53.486;10.218;2022-09-13T20:11:07;3.00;;;1.10;;
17844;SDS011;9047;53.486;10.218;2022-09-13T20:13:41;3.80;;;1.30;;
17844;SDS011;9047;53.486;10.218;2022-09-13T20:16:14;5.57;;;1.33;;
17844;SDS011;9047;53.486;10.218;2022-09-13T20:18:46;4.22;;;1.80;;
17844;SDS011;9047;53.486;10.218;2022-09-13T20:21:32;5.78;;;1.67;;
17844;SDS011;9047;53.486;10.218;2022-09-13T20:24:08;4.70;;;1.30;;
17844;SDS011;9047;53.486;10.218;2022-09-13T20:27:18;4.57;;;1.10;;
17844;SDS011;9047;53.486;10.218;2022-09-13T20:29:54;8.48;;;1.70;;
17844;SDS011;9047;53.486;10.218;2022-09-13T20:32:25;7.25;;;1.38;;
17844;SDS011;9047;53.486;10.218;2022-09-13T20:35:06;4.22;;;1.10;;
17844;SDS011;9047;53.486;10.218;2022-09-13T20:38:02;4.63;;;1.73;;
17844;SDS011;9047;53.486;10.218;2022-09-13T20:40:52;5.07;;;1.20;;
17844;SDS011;9047;53.486;10.218;2022-09-13T20:43:26;4.68;;;1.20;;
17844;SDS011;9047;53.486;10.218;2022-09-13T20:46:08;5.80;;;1.17;;
17844;SDS011;9047;53.486;10.218;2022-09-13T20:49:07;2.80;;;1.20;;
17844;SDS011;9047;53.486;10.218;2022-09-13T20:52:04;5.07;;;1.50;;
17844;SDS011;9047;53.486;10.218;2022-09-13T20:54:50;4.97;;;1.35;;
17844;SDS011;9047;53.486;10.218;2022-09-13T20:58:01;3.60;;;1.42;;
17844;SDS011;9047;53.486;10.218;2022-09-13T21:00:31;8.85;;;1.30;;
17844;SDS011;9047;53.486;10.218;2022-09-13T21:03:06;4.03;;;1.63;;
17844;SDS011;9047;53.486;10.218;2022-09-13T21:08:59;6.05;;;1.30;;
17844;SDS011;9047;53.486;10.218;2022-09-13T21:11:52;4.60;;;1.20;;
17844;SDS011;9047;53.486;10.218;2022-09-13T21:14:29;3.63;;;0.90;;
17844;SDS011;9047;53.486;10.218;2022-09-13T21:17:04;4.25;;;1.10;;
17844;SDS011;9047;53.486;10.218;2022-09-13T21:19:47;7.53;;;1.48;;
17844;SDS011;9047;53.486;10.218;2022-09-13T21:22:24;7.50;;;1.70;;
17844;SDS011;9047;53.486;10.218;2022-09-13T21:25:01;3.63;;;1.00;;
17844;SDS011;9047;53.486;10.218;2022-09-13T21:27:36;4.10;;;1.27;;
17844;SDS011;9047;53.486;10.218;2022-09-13T21:30:22;6.40;;;1.90;;
17844;SDS011;9047;53.486;10.218;2022-09-13T21:33:06;5.75;;;1.20;;
17844;SDS011;9047;53.486;10.218;2022-09-13T21:35:49;7.07;;;1.23;;
17844;SDS011;9047;53.486;10.218;2022-09-13T21:38:26;10.27;;;1.33;;
17844;SDS011;9047;53.486;10.218;2022-09-13T21:41:12;3.10;;;1.23;;
17844;SDS011;9047;53.486;10.218;2022-09-13T21:43:47;5.60;;;1.60;;
17844;SDS011;9047;53.486;10.218;2022-09-13T21:46:28;3.72;;;1.17;;
17844;SDS011;9047;53.486;10.218;2022-09-13T21:49:00;5.72;;;1.13;;
17844;SDS011;9047;53.486;10.218;2022-09-13T21:51:36;3.28;;;1.20;;
17844;SDS011;9047;53.486;10.218;2022-09-13T21:54:28;4.95;;;1.58;;
17844;SDS011;9047;53.486;10.218;2022-09-13T22:18:52;6.88;;;1.33;;
17844;SDS011;9047;53.486;10.218;2022-09-13T22:22:01;5.65;;;1.17;;
17844;SDS011;9047;53.486;10.218;2022-09-13T22:24:46;4.18;;;1.17;;
17844;SDS011;9047;53.486;10.218;2022-09-13T22:42:18;3.50;;;1.10;;
17844;SDS011;9047;53.486;10.218;2022-09-13T22:45:20;3.53;;;1.08;;
17844;SDS011;9047;53.486;10.218;2022-09-13T22:48:19;5.72;;;1.13;;
17844;SDS011;9047;53.486;10.218;2022-09-13T22:51:05;4.43;;;1.30;;
17844;SDS011;9047;53.486;10.218;2022-09-13T22:53:51;3.67;;;1.30;;
17844;SDS011;9047;53.486;10.218;2022-09-13T22:56:42;3.58;;;0.98;;
17844;SDS011;9047;53.486;10.218;2022-09-13T22:59:39;5.13;;;1.08;;
17844;SDS011;9047;53.486;10.218;2022-09-13T23:08:53;4.68;;;1.02;;
17844;SDS011;9047;53.486;10.218;2022-09-13T23:15:34;6.97;;;1.02;;
17844;SDS011;9047;53.486;10.218;2022-09-13T23:18:41;3.42;;;0.90;;
17844;SDS011;9047;53.486;10.218;2022-09-13T23:25:00;7.57;;;1.27;;
17844;SDS011;9047;53.486;10.218;2022-09-13T23:31:32;6.13;;;2.00;;
17844;SDS011;9047;53.486;10.218;2022-09-13T23:38:00;4.90;;;1.80;;
